createdAt,value
2023-01-19T00:00:21.831Z,10.30
2023-01-19T00:05:21.719Z,10.80
2023-01-19T00:10:21.679Z,9.60
2023-01-19T00:15:21.747Z,10.30
2023-01-19T00:20:21.676Z,11.50
2023-01-19T00:25:21.641Z,9.70
2023-01-19T00:30:21.580Z,10.50
2023-01-19T00:35:21.506Z,10.20
2023-01-19T00:40:21.368Z,10.20
2023-01-19T00:45:21.314Z,11.1
2023-01-19T00:50:21.230Z,10.8
2023-01-19T00:55:21.216Z,10.4
2023-01-19T01:00:21.234Z,10.9
2023-01-19T01:05:21.172Z,11.8
2023-01-19T01:10:21.082Z,11.2
2023-01-19T01:15:21.039Z,11.3
2023-01-19T01:20:20.943Z,10.0
2023-01-19T01:25:21.027Z,10.9
2023-01-19T01:30:20.769Z,10.5
2023-01-19T01:35:21.925Z,10.9
2023-01-19T01:40:20.691Z,11.8
2023-01-19T01:45:20.654Z,10.9
2023-01-19T01:50:20.575Z,10.8
2023-01-19T01:55:20.587Z,10.8
2023-01-19T02:00:20.505Z,10.8
2023-01-19T02:05:20.648Z,11.0
2023-01-19T02:10:20.578Z,11.4
2023-01-19T02:15:21.561Z,10.8
2023-01-19T02:20:20.287Z,10.1
2023-01-19T02:25:20.221Z,10.5
2023-01-19T02:30:20.216Z,10.5
2023-01-19T02:35:20.131Z,10.7
2023-01-19T02:40:20.056Z,10.4
2023-01-19T02:45:20.159Z,11.0
2023-01-19T02:50:20.107Z,10.9
2023-01-19T02:55:20.050Z,10.0
2023-01-19T03:00:20.020Z,9.8
2023-01-19T03:05:19.924Z,9.2
2023-01-19T03:10:19.851Z,9.6
2023-01-19T03:15:19.692Z,9.1
2023-01-19T03:20:19.593Z,9.6
2023-01-19T03:25:19.547Z,10.1
2023-01-19T03:30:19.516Z,9.5
2023-01-19T03:35:19.428Z,8.2
2023-01-19T03:40:19.426Z,8.9
2023-01-19T03:45:19.355Z,9.7
2023-01-19T03:50:19.324Z,9.4
2023-01-19T03:55:19.337Z,8.9
2023-01-19T04:00:19.162Z,9.0
2023-01-19T04:05:19.261Z,8.9
2023-01-19T04:10:19.140Z,9.4
2023-01-19T04:15:19.039Z,9.7
2023-01-19T04:20:19.116Z,9.3
2023-01-19T04:25:19.057Z,10.3
2023-01-19T04:30:18.829Z,10.8
2023-01-19T04:35:18.821Z,12.5
2023-01-19T04:40:27.584Z,12.0
2023-01-19T04:45:18.868Z,15.9
2023-01-19T04:50:18.724Z,15.8
2023-01-19T04:55:23.088Z,15.1
2023-01-19T05:00:19.529Z,14.4
2023-01-19T05:05:20.942Z,17.3
2023-01-19T05:10:18.477Z,16.4
2023-01-19T05:15:18.372Z,15.0
2023-01-19T05:20:18.365Z,14.7
2023-01-19T05:25:18.502Z,16.7
2023-01-19T05:30:18.219Z,15.4
2023-01-19T05:35:27.789Z,36.2
2023-01-19T05:40:19.147Z,16.9
2023-01-19T05:45:18.139Z,15.3
2023-01-19T05:50:18.126Z,15.9
2023-01-19T05:55:18.056Z,17.0
2023-01-19T06:00:18.133Z,18.5
2023-01-19T06:05:17.911Z,15.4
2023-01-19T06:10:17.977Z,12.8
2023-01-19T06:15:17.768Z,8.6
2023-01-19T06:20:17.824Z,9.3
2023-01-19T06:25:17.705Z,9.3
2023-01-19T06:30:17.658Z,8.3
2023-01-19T06:35:17.650Z,6.9
2023-01-19T06:40:17.554Z,6.9
2023-01-19T06:45:17.544Z,7.6
2023-01-19T06:50:17.421Z,7.4
2023-01-19T06:55:17.363Z,8.3
2023-01-19T07:00:17.271Z,8.1
2023-01-19T07:05:17.301Z,6.8
2023-01-19T07:10:17.138Z,5.3
2023-01-19T07:15:17.076Z,5.3
2023-01-19T07:20:17.214Z,4.7
2023-01-19T07:25:17.018Z,4.5
2023-01-19T07:30:17.040Z,5.0
2023-01-19T07:35:16.910Z,5.0
2023-01-19T07:40:16.898Z,5.6
2023-01-19T07:45:16.869Z,6.9
2023-01-19T07:50:16.664Z,6.5
2023-01-19T07:55:16.713Z,7.8
2023-01-19T08:00:16.605Z,8.5
2023-01-19T08:05:16.586Z,9.7
2023-01-19T08:10:17.780Z,9.4
2023-01-19T08:15:16.494Z,9.8
2023-01-19T08:20:16.391Z,9.9
2023-01-19T08:25:16.477Z,10.4
2023-01-19T08:30:16.305Z,10.3
2023-01-19T08:35:16.198Z,10.5
2023-01-19T08:40:17.240Z,10.6
2023-01-19T08:45:16.308Z,11.8
2023-01-19T08:50:16.072Z,10.7
2023-01-19T08:55:16.053Z,11.3
2023-01-19T09:00:16.204Z,11.1
2023-01-19T09:05:16.312Z,11.5
2023-01-19T09:10:16.056Z,12.8
2023-01-19T09:15:16.138Z,12.9
2023-01-19T09:20:15.715Z,12.4
2023-01-19T09:25:15.767Z,13.1
2023-01-19T09:30:16.893Z,12.9
2023-01-19T09:35:16.580Z,12.9
2023-01-19T09:40:15.481Z,13.2
2023-01-19T09:45:15.476Z,13.4
2023-01-19T09:50:15.438Z,13.8
2023-01-19T09:55:15.432Z,15.1
2023-01-19T10:00:15.340Z,14.0
2023-01-19T10:05:15.270Z,14.2
2023-01-19T10:10:15.165Z,12.4
2023-01-19T10:15:15.158Z,10.3
2023-01-19T10:20:15.071Z,10.2
2023-01-19T10:25:15.011Z,11.7
2023-01-19T10:30:14.959Z,14.3
2023-01-19T10:35:14.931Z,15.4
2023-01-19T10:40:23.679Z,16.3
2023-01-19T10:45:15.967Z,18.7
2023-01-19T10:50:14.792Z,20.0
2023-01-19T10:55:14.730Z,22.0
2023-01-19T11:00:14.744Z,22.4
2023-01-19T11:05:14.568Z,22.6
2023-01-19T11:10:14.608Z,24.8
2023-01-19T11:15:14.523Z,25.00
2023-01-19T11:20:15.457Z,22.90
2023-01-19T11:25:14.392Z,24.50
2023-01-19T11:30:14.327Z,24.20
2023-01-19T11:35:14.281Z,23.50
2023-01-19T11:40:14.448Z,23.20
2023-01-19T11:45:14.226Z,25.00
2023-01-19T11:50:14.098Z,21.30
2023-01-19T11:55:14.225Z,23.30
2023-01-19T12:00:14.000Z,24.10
2023-01-19T12:05:13.979Z,23.10
2023-01-19T12:10:13.859Z,24.80
2023-01-19T12:15:13.793Z,24.00
2023-01-19T12:20:13.813Z,23.80
2023-01-19T12:25:13.738Z,24.10
2023-01-19T12:30:13.664Z,24.30
2023-01-19T12:35:13.648Z,25.90
2023-01-19T12:40:13.539Z,25.00
2023-01-19T12:45:13.533Z,24.30
2023-01-19T12:50:13.415Z,25.70
2023-01-19T12:55:13.439Z,24.40
2023-01-19T13:00:13.365Z,26.20
2023-01-19T13:05:13.330Z,24.40
2023-01-19T13:10:13.301Z,23.90
2023-01-19T13:15:13.267Z,23.70
2023-01-19T13:20:13.476Z,21.70
2023-01-19T13:25:13.230Z,22.50
2023-01-19T13:30:13.193Z,22.70
2023-01-19T13:35:13.015Z,21.50
2023-01-19T13:40:12.901Z,20.90
2023-01-19T13:45:13.370Z,21.00
2023-01-19T13:50:12.799Z,20.70
2023-01-19T13:55:12.775Z,17.80
2023-01-19T14:00:12.939Z,17.70
2023-01-19T14:05:12.628Z,18.70
2023-01-19T14:10:12.587Z,18.10
2023-01-19T14:15:12.547Z,17.00
2023-01-19T14:20:12.477Z,18.30
2023-01-19T14:25:13.461Z,16.90
2023-01-19T14:30:15.860Z,17.60
2023-01-19T14:35:12.410Z,17.90
2023-01-19T14:40:12.245Z,17.40
2023-01-19T14:45:12.166Z,17.20
2023-01-19T14:50:12.164Z,17.70
2023-01-19T14:55:12.090Z,17.80
2023-01-19T15:00:12.114Z,16.70
2023-01-19T15:05:11.975Z,16.70
2023-01-19T15:10:11.903Z,18.20
2023-01-19T15:15:11.973Z,20.60
2023-01-19T15:20:11.812Z,21.60
2023-01-19T15:25:11.789Z,21.50
2023-01-19T15:30:11.741Z,21.30
2023-01-19T15:35:11.885Z,22.60
2023-01-19T15:40:11.582Z,21.00
2023-01-19T15:45:11.552Z,22.20
2023-01-19T15:50:11.514Z,22.20
2023-01-19T15:55:11.632Z,22.50
2023-01-19T16:00:11.417Z,23.70
2023-01-19T16:05:12.775Z,22.10
2023-01-19T16:10:12.487Z,20.20
2023-01-19T16:15:11.635Z,20.60
2023-01-19T16:20:14.506Z,18.60
2023-01-19T16:25:11.107Z,19.40
2023-01-19T16:30:11.471Z,19.70
2023-01-19T16:35:12.083Z,21.90
2023-01-19T16:40:11.668Z,23.00
2023-01-19T16:45:11.006Z,19.80
2023-01-19T16:50:11.369Z,18.40
2023-01-19T16:55:10.848Z,17.90
2023-01-19T17:00:11.053Z,19.10
2023-01-19T17:05:11.003Z,16.60
2023-01-19T17:10:10.975Z,18.40
2023-01-19T17:15:11.751Z,19.90
2023-01-19T17:20:11.161Z,21.30
2023-01-19T17:25:10.601Z,22.70
2023-01-19T17:30:10.789Z,22.90
2023-01-19T17:35:10.370Z,23.40
2023-01-19T17:40:10.857Z,24.50
2023-01-19T17:45:11.696Z,25.70
2023-01-19T17:50:10.424Z,25.60
2023-01-19T17:55:11.225Z,24.30
2023-01-19T18:00:10.759Z,23.20
2023-01-19T18:05:10.156Z,26.50
2023-01-19T18:10:10.102Z,32.30
2023-01-19T18:15:09.963Z,37.30
2023-01-19T18:20:10.068Z,49.40
2023-01-19T18:25:09.932Z,35.90
2023-01-19T18:30:09.804Z,29.80
2023-01-19T18:35:09.801Z,29.20
2023-01-19T18:40:09.810Z,30.30
2023-01-19T18:45:09.673Z,24.30
2023-01-19T18:50:09.587Z,24.40
2023-01-19T18:55:09.588Z,26.70
2023-01-19T19:00:10.628Z,25.30
2023-01-19T19:05:09.412Z,26.30
2023-01-19T19:10:09.421Z,27.10
2023-01-19T19:15:09.322Z,28.70
2023-01-19T19:20:09.205Z,23.10
2023-01-19T19:25:09.173Z,22.60
2023-01-19T19:30:09.269Z,23.00
2023-01-19T19:35:10.277Z,24.50
2023-01-19T19:40:09.030Z,22.10
2023-01-19T19:45:09.115Z,24.10
2023-01-19T19:50:08.941Z,26.20
2023-01-19T19:55:08.973Z,30.80
2023-01-19T20:00:08.807Z,29.10
2023-01-19T20:05:08.921Z,26.40
2023-01-19T20:10:08.809Z,23.40
2023-01-19T20:15:08.758Z,24.30
2023-01-19T20:20:08.621Z,24.50
2023-01-19T20:25:08.535Z,22.10
2023-01-19T20:30:08.476Z,24.80
2023-01-19T20:35:08.541Z,21.80
2023-01-19T20:40:08.363Z,27.10
2023-01-19T20:45:08.380Z,22.50
2023-01-19T20:50:08.410Z,23.80
2023-01-19T20:55:10.607Z,20.10
2023-01-19T21:00:08.293Z,19.40
2023-01-19T21:05:08.285Z,18.80
2023-01-19T21:10:07.982Z,17.90
2023-01-19T21:15:08.143Z,18.00
2023-01-19T21:20:07.904Z,21.30
2023-01-19T21:25:07.852Z,19.20
2023-01-19T21:30:07.860Z,21.00
2023-01-19T21:35:07.763Z,19.90
2023-01-19T21:40:07.772Z,20.20
2023-01-19T21:45:07.731Z,19.80
2023-01-19T21:50:07.723Z,30.40
2023-01-19T21:55:07.497Z,19.30
2023-01-19T22:00:07.622Z,16.30
2023-01-19T22:05:07.426Z,17.40
2023-01-19T22:10:07.382Z,17.90
2023-01-19T22:15:07.344Z,19.70
2023-01-19T22:20:07.952Z,18.40
2023-01-19T22:25:07.362Z,18.20
2023-01-19T22:30:09.220Z,18.40
2023-01-19T22:35:07.050Z,18.50
2023-01-19T22:40:07.083Z,18.40
2023-01-19T22:45:06.998Z,18.30
2023-01-19T22:50:06.953Z,19.90
2023-01-19T22:55:06.905Z,21.20
2023-01-19T23:00:06.962Z,21.20
2023-01-19T23:05:06.766Z,22.20
2023-01-19T23:10:06.792Z,23.30
2023-01-19T23:15:06.771Z,22.10
2023-01-19T23:20:06.688Z,23.10
2023-01-19T23:25:06.615Z,23.10
2023-01-19T23:30:06.504Z,23.90
2023-01-19T23:35:06.426Z,20.70
2023-01-19T23:40:06.398Z,21.80
2023-01-19T23:45:06.321Z,20.90
2023-01-19T23:50:08.387Z,21.10
2023-01-19T23:55:06.216Z,20.10
